sensor_id;sensor_type;location;lat;lon;timestamp;temperature;humidity
292;DHT22;23311;48.776;9.162;2024-03-06T00:00:17;6.60;95.50
292;DHT22;23311;48.776;9.162;2024-03-06T00:02:46;6.60;95.50
292;DHT22;23311;48.776;9.162;2024-03-06T00:05:14;6.60;95.50
292;DHT22;23311;48.776;9.162;2024-03-06T00:07:42;6.60;95.50
292;DHT22;23311;48.776;9.162;2024-03-06T00:10:11;6.60;95.50
292;DHT22;23311;48.776;9.162;2024-03-06T00:12:40;6.60;95.50
292;DHT22;23311;48.776;9.162;2024-03-06T00:15:08;6.60;95.50
292;DHT22;23311;48.776;9.162;2024-03-06T00:17:36;6.60;95.50
292;DHT22;23311;48.776;9.162;2024-03-06T00:20:07;6.60;95.50
292;DHT22;23311;48.776;9.162;2024-03-06T00:22:37;6.70;95.50
292;DHT22;23311;48.776;9.162;2024-03-06T00:25:07;6.80;95.50
292;DHT22;23311;48.776;9.162;2024-03-06T00:27:35;6.70;95.50
292;DHT22;23311;48.776;9.162;2024-03-06T00:30:06;6.80;95.50
292;DHT22;23311;48.776;9.162;2024-03-06T00:32:34;6.80;95.50
292;DHT22;23311;48.776;9.162;2024-03-06T00:35:03;6.70;95.50
292;DHT22;23311;48.776;9.162;2024-03-06T00:37:31;6.70;95.50
292;DHT22;23311;48.776;9.162;2024-03-06T00:40:00;6.70;95.50
292;DHT22;23311;48.776;9.162;2024-03-06T00:42:28;6.70;95.50
292;DHT22;23311;48.776;9.162;2024-03-06T00:44:56;6.70;95.50
292;DHT22;23311;48.776;9.162;2024-03-06T00:47:26;6.60;95.50
292;DHT22;23311;48.776;9.162;2024-03-06T00:49:54;6.50;95.50
292;DHT22;23311;48.776;9.162;2024-03-06T00:52:23;6.50;95.50
292;DHT22;23311;48.776;9.162;2024-03-06T00:54:51;6.40;95.50
292;DHT22;23311;48.776;9.162;2024-03-06T00:57:19;6.40;95.50
292;DHT22;23311;48.776;9.162;2024-03-06T00:59:47;6.30;95.50
292;DHT22;23311;48.776;9.162;2024-03-06T01:02:15;6.30;95.50
292;DHT22;23311;48.776;9.162;2024-03-06T01:04:45;6.30;95.50
292;DHT22;23311;48.776;9.162;2024-03-06T01:07:13;6.20;95.50
292;DHT22;23311;48.776;9.162;2024-03-06T01:09:41;6.30;95.50
292;DHT22;23311;48.776;9.162;2024-03-06T01:12:10;6.30;95.50
292;DHT22;23311;48.776;9.162;2024-03-06T01:14:38;6.30;95.50
292;DHT22;23311;48.776;9.162;2024-03-06T01:17:06;6.30;95.50
292;DHT22;23311;48.776;9.162;2024-03-06T01:19:35;6.20;95.50
292;DHT22;23311;48.776;9.162;2024-03-06T01:22:04;6.20;95.50
292;DHT22;23311;48.776;9.162;2024-03-06T01:24:33;6.20;95.50
292;DHT22;23311;48.776;9.162;2024-03-06T01:27:01;6.30;95.50
292;DHT22;23311;48.776;9.162;2024-03-06T01:29:29;6.30;95.50
292;DHT22;23311;48.776;9.162;2024-03-06T01:31:58;6.20;95.50
292;DHT22;23311;48.776;9.162;2024-03-06T01:34:26;6.30;95.50
292;DHT22;23311;48.776;9.162;2024-03-06T01:36:55;6.40;95.50
292;DHT22;23311;48.776;9.162;2024-03-06T01:39:24;6.40;95.50
292;DHT22;23311;48.776;9.162;2024-03-06T01:41:53;6.50;95.50
292;DHT22;23311;48.776;9.162;2024-03-06T01:44:21;6.50;95.50
292;DHT22;23311;48.776;9.162;2024-03-06T01:46:49;6.50;95.50
292;DHT22;23311;48.776;9.162;2024-03-06T01:49:17;6.50;95.50
292;DHT22;23311;48.776;9.162;2024-03-06T01:51:58;6.50;95.50
292;DHT22;23311;48.776;9.162;2024-03-06T01:54:30;6.50;95.50
292;DHT22;23311;48.776;9.162;2024-03-06T01:56:59;6.50;95.50
292;DHT22;23311;48.776;9.162;2024-03-06T01:59:29;6.50;95.50
292;DHT22;23311;48.776;9.162;2024-03-06T02:02:03;6.60;95.50
292;DHT22;23311;48.776;9.162;2024-03-06T02:04:34;6.50;95.50
292;DHT22;23311;48.776;9.162;2024-03-06T02:07:03;6.40;95.50
292;DHT22;23311;48.776;9.162;2024-03-06T02:09:35;6.40;95.50
292;DHT22;23311;48.776;9.162;2024-03-06T02:12:04;6.40;95.50
292;DHT22;23311;48.776;9.162;2024-03-06T02:14:32;6.40;95.50
292;DHT22;23311;48.776;9.162;2024-03-06T02:17:00;6.50;95.50
292;DHT22;23311;48.776;9.162;2024-03-06T02:19:38;6.50;95.50
292;DHT22;23311;48.776;9.162;2024-03-06T02:22:08;6.50;95.50
292;DHT22;23311;48.776;9.162;2024-03-06T02:24:37;6.50;95.50
292;DHT22;23311;48.776;9.162;2024-03-06T02:27:05;6.50;95.50
292;DHT22;23311;48.776;9.162;2024-03-06T02:29:34;6.60;95.50
292;DHT22;23311;48.776;9.162;2024-03-06T02:32:02;6.60;95.50
292;DHT22;23311;48.776;9.162;2024-03-06T02:34:30;6.60;95.50
292;DHT22;23311;48.776;9.162;2024-03-06T02:36:59;6.60;95.50
292;DHT22;23311;48.776;9.162;2024-03-06T02:39:28;6.60;95.50
292;DHT22;23311;48.776;9.162;2024-03-06T02:41:57;6.60;95.50
292;DHT22;23311;48.776;9.162;2024-03-06T02:44:25;6.50;95.50
292;DHT22;23311;48.776;9.162;2024-03-06T02:46:53;6.50;95.50
292;DHT22;23311;48.776;9.162;2024-03-06T02:49:21;6.40;95.50
292;DHT22;23311;48.776;9.162;2024-03-06T02:51:50;6.50;95.50
292;DHT22;23311;48.776;9.162;2024-03-06T02:54:18;6.40;95.50
292;DHT22;23311;48.776;9.162;2024-03-06T02:56:48;6.30;95.50
292;DHT22;23311;48.776;9.162;2024-03-06T02:59:19;6.30;95.50
292;DHT22;23311;48.776;9.162;2024-03-06T03:01:47;6.30;95.50
292;DHT22;23311;48.776;9.162;2024-03-06T03:04:15;6.30;95.50
292;DHT22;23311;48.776;9.162;2024-03-06T03:06:44;6.30;95.50
292;DHT22;23311;48.776;9.162;2024-03-06T03:09:12;6.30;95.50
292;DHT22;23311;48.776;9.162;2024-03-06T03:11:42;6.30;95.50
292;DHT22;23311;48.776;9.162;2024-03-06T03:14:11;6.30;95.50
292;DHT22;23311;48.776;9.162;2024-03-06T03:16:40;6.30;95.50
292;DHT22;23311;48.776;9.162;2024-03-06T03:19:08;6.30;95.50
292;DHT22;23311;48.776;9.162;2024-03-06T03:21:37;6.30;95.50
292;DHT22;23311;48.776;9.162;2024-03-06T03:24:06;6.30;95.50
292;DHT22;23311;48.776;9.162;2024-03-06T03:26:34;6.30;95.50
292;DHT22;23311;48.776;9.162;2024-03-06T03:29:03;6.30;95.50
292;DHT22;23311;48.776;9.162;2024-03-06T03:31:33;6.30;95.50
292;DHT22;23311;48.776;9.162;2024-03-06T03:34:03;6.30;95.50
292;DHT22;23311;48.776;9.162;2024-03-06T03:36:31;6.40;95.50
292;DHT22;23311;48.776;9.162;2024-03-06T03:39:00;6.40;95.50
292;DHT22;23311;48.776;9.162;2024-03-06T03:41:29;6.30;95.50
292;DHT22;23311;48.776;9.162;2024-03-06T03:43:57;6.30;95.50
292;DHT22;23311;48.776;9.162;2024-03-06T03:46:25;6.30;95.50
292;DHT22;23311;48.776;9.162;2024-03-06T03:48:55;6.30;95.50
292;DHT22;23311;48.776;9.162;2024-03-06T03:51:23;6.30;95.50
292;DHT22;23311;48.776;9.162;2024-03-06T03:53:51;6.30;95.50
292;DHT22;23311;48.776;9.162;2024-03-06T03:56:20;6.20;95.50
292;DHT22;23311;48.776;9.162;2024-03-06T03:58:48;6.30;95.50
292;DHT22;23311;48.776;9.162;2024-03-06T04:01:16;6.20;95.50
292;DHT22;23311;48.776;9.162;2024-03-06T04:03:45;6.20;95.50
292;DHT22;23311;48.776;9.162;2024-03-06T04:06:14;6.20;95.50
292;DHT22;23311;48.776;9.162;2024-03-06T04:08:43;6.10;95.50
292;DHT22;23311;48.776;9.162;2024-03-06T04:11:11;6.10;95.50
292;DHT22;23311;48.776;9.162;2024-03-06T04:13:39;6.10;95.50
292;DHT22;23311;48.776;9.162;2024-03-06T04:16:07;6.10;95.50
292;DHT22;23311;48.776;9.162;2024-03-06T04:18:35;6.00;95.50
292;DHT22;23311;48.776;9.162;2024-03-06T04:21:04;6.00;95.50
292;DHT22;23311;48.776;9.162;2024-03-06T04:23:34;6.00;95.50
292;DHT22;23311;48.776;9.162;2024-03-06T04:26:03;6.10;95.50
292;DHT22;23311;48.776;9.162;2024-03-06T04:28:32;6.10;95.50
292;DHT22;23311;48.776;9.162;2024-03-06T04:31:01;6.00;95.50
292;DHT22;23311;48.776;9.162;2024-03-06T04:33:29;6.00;95.50
292;DHT22;23311;48.776;9.162;2024-03-06T04:35:57;6.00;95.50
292;DHT22;23311;48.776;9.162;2024-03-06T04:38:25;6.10;95.50
292;DHT22;23311;48.776;9.162;2024-03-06T04:40:55;6.00;95.50
292;DHT22;23311;48.776;9.162;2024-03-06T04:43:23;6.00;95.50
292;DHT22;23311;48.776;9.162;2024-03-06T04:45:51;6.00;95.50
292;DHT22;23311;48.776;9.162;2024-03-06T04:48:19;6.10;95.50
292;DHT22;23311;48.776;9.162;2024-03-06T04:50:48;6.00;95.50
292;DHT22;23311;48.776;9.162;2024-03-06T04:53:16;6.00;95.50
292;DHT22;23311;48.776;9.162;2024-03-06T04:55:45;6.00;95.50
292;DHT22;23311;48.776;9.162;2024-03-06T04:58:14;6.10;95.50
292;DHT22;23311;48.776;9.162;2024-03-06T05:00:42;6.10;95.50
292;DHT22;23311;48.776;9.162;2024-03-06T05:03:10;6.10;95.50
292;DHT22;23311;48.776;9.162;2024-03-06T05:05:56;6.10;95.50
292;DHT22;23311;48.776;9.162;2024-03-06T05:08:42;6.10;95.50
292;DHT22;23311;48.776;9.162;2024-03-06T05:11:27;6.20;95.50
292;DHT22;23311;48.776;9.162;2024-03-06T05:14:15;6.20;95.50
292;DHT22;23311;48.776;9.162;2024-03-06T05:17:00;6.20;95.50
292;DHT22;23311;48.776;9.162;2024-03-06T05:19:47;6.10;95.50
292;DHT22;23311;48.776;9.162;2024-03-06T05:22:33;6.10;95.50
292;DHT22;23311;48.776;9.162;2024-03-06T05:25:19;6.00;95.50
292;DHT22;23311;48.776;9.162;2024-03-06T05:28:05;6.00;95.50
292;DHT22;23311;48.776;9.162;2024-03-06T05:30:52;6.00;95.50
292;DHT22;23311;48.776;9.162;2024-03-06T05:33:38;6.10;95.50
292;DHT22;23311;48.776;9.162;2024-03-06T05:36:24;6.10;95.50
292;DHT22;23311;48.776;9.162;2024-03-06T05:39:09;6.20;95.50
292;DHT22;23311;48.776;9.162;2024-03-06T05:42:00;6.20;95.50
292;DHT22;23311;48.776;9.162;2024-03-06T05:44:47;6.20;95.50
292;DHT22;23311;48.776;9.162;2024-03-06T05:47:35;6.20;95.50
292;DHT22;23311;48.776;9.162;2024-03-06T05:50:21;6.20;95.50
292;DHT22;23311;48.776;9.162;2024-03-06T05:53:07;6.20;95.50
292;DHT22;23311;48.776;9.162;2024-03-06T05:55:53;6.20;95.50
292;DHT22;23311;48.776;9.162;2024-03-06T05:58:39;6.20;95.50
292;DHT22;23311;48.776;9.162;2024-03-06T06:01:07;6.20;95.50
292;DHT22;23311;48.776;9.162;2024-03-06T06:03:37;6.20;95.50
292;DHT22;23311;48.776;9.162;2024-03-06T06:06:05;6.20;95.50
292;DHT22;23311;48.776;9.162;2024-03-06T06:08:33;6.20;95.50
292;DHT22;23311;48.776;9.162;2024-03-06T06:11:02;6.20;95.50
292;DHT22;23311;48.776;9.162;2024-03-06T06:13:31;6.20;95.50
292;DHT22;23311;48.776;9.162;2024-03-06T06:16:22;6.20;95.50
292;DHT22;23311;48.776;9.162;2024-03-06T06:19:14;6.20;95.50
292;DHT22;23311;48.776;9.162;2024-03-06T06:21:42;6.20;95.50
292;DHT22;23311;48.776;9.162;2024-03-06T06:24:10;6.20;95.50
292;DHT22;23311;48.776;9.162;2024-03-06T06:26:38;6.20;95.50
292;DHT22;23311;48.776;9.162;2024-03-06T06:29:06;6.20;95.50
292;DHT22;23311;48.776;9.162;2024-03-06T06:31:35;6.20;95.50
292;DHT22;23311;48.776;9.162;2024-03-06T06:34:04;6.10;95.50
292;DHT22;23311;48.776;9.162;2024-03-06T06:36:33;6.10;95.50
292;DHT22;23311;48.776;9.162;2024-03-06T06:39:02;6.10;95.50
292;DHT22;23311;48.776;9.162;2024-03-06T06:41:32;6.10;95.50
292;DHT22;23311;48.776;9.162;2024-03-06T06:44:01;6.10;95.50
292;DHT22;23311;48.776;9.162;2024-03-06T06:46:30;6.10;95.50
292;DHT22;23311;48.776;9.162;2024-03-06T06:48:58;6.10;95.50
292;DHT22;23311;48.776;9.162;2024-03-06T06:51:26;6.20;95.50
292;DHT22;23311;48.776;9.162;2024-03-06T06:53:56;6.20;95.50
292;DHT22;23311;48.776;9.162;2024-03-06T06:56:27;6.20;95.50
292;DHT22;23311;48.776;9.162;2024-03-06T06:58:56;6.20;95.50
292;DHT22;23311;48.776;9.162;2024-03-06T07:01:24;6.20;95.50
292;DHT22;23311;48.776;9.162;2024-03-06T07:03:54;6.20;95.50
292;DHT22;23311;48.776;9.162;2024-03-06T07:06:23;6.20;95.50
292;DHT22;23311;48.776;9.162;2024-03-06T07:08:51;6.20;95.50
292;DHT22;23311;48.776;9.162;2024-03-06T07:11:20;6.20;95.50
292;DHT22;23311;48.776;9.162;2024-03-06T07:13:49;6.30;95.50
292;DHT22;23311;48.776;9.162;2024-03-06T07:16:18;6.30;95.50
292;DHT22;23311;48.776;9.162;2024-03-06T07:18:46;6.40;95.50
292;DHT22;23311;48.776;9.162;2024-03-06T07:21:15;6.40;95.50
292;DHT22;23311;48.776;9.162;2024-03-06T07:23:44;6.50;95.50
292;DHT22;23311;48.776;9.162;2024-03-06T07:26:13;6.40;95.50
292;DHT22;23311;48.776;9.162;2024-03-06T07:28:42;6.40;95.50
292;DHT22;23311;48.776;9.162;2024-03-06T07:31:10;6.40;95.50
292;DHT22;23311;48.776;9.162;2024-03-06T07:33:38;6.40;95.50
292;DHT22;23311;48.776;9.162;2024-03-06T07:36:07;6.40;95.50
292;DHT22;23311;48.776;9.162;2024-03-06T07:38:36;6.40;95.50
292;DHT22;23311;48.776;9.162;2024-03-06T07:41:05;6.50;95.50
292;DHT22;23311;48.776;9.162;2024-03-06T07:43:33;6.50;95.50
292;DHT22;23311;48.776;9.162;2024-03-06T07:46:03;6.50;95.50
292;DHT22;23311;48.776;9.162;2024-03-06T07:48:38;6.50;95.50
292;DHT22;23311;48.776;9.162;2024-03-06T07:51:07;6.50;95.50
292;DHT22;23311;48.776;9.162;2024-03-06T07:53:35;6.50;95.50
292;DHT22;23311;48.776;9.162;2024-03-06T07:56:04;6.50;95.50
292;DHT22;23311;48.776;9.162;2024-03-06T07:58:32;6.60;95.50
292;DHT22;23311;48.776;9.162;2024-03-06T08:01:00;6.50;95.50
292;DHT22;23311;48.776;9.162;2024-03-06T08:03:30;6.50;95.50
292;DHT22;23311;48.776;9.162;2024-03-06T08:05:58;6.60;95.50
292;DHT22;23311;48.776;9.162;2024-03-06T08:08:26;6.60;95.50
292;DHT22;23311;48.776;9.162;2024-03-06T08:10:55;6.60;95.50
292;DHT22;23311;48.776;9.162;2024-03-06T08:13:23;6.50;95.50
292;DHT22;23311;48.776;9.162;2024-03-06T08:15:51;6.60;95.50
292;DHT22;23311;48.776;9.162;2024-03-06T08:18:20;6.50;95.50
292;DHT22;23311;48.776;9.162;2024-03-06T08:20:49;6.50;95.50
292;DHT22;23311;48.776;9.162;2024-03-06T08:23:20;6.50;95.50
292;DHT22;23311;48.776;9.162;2024-03-06T08:25:48;6.50;95.50
292;DHT22;23311;48.776;9.162;2024-03-06T08:28:16;6.50;95.50
292;DHT22;23311;48.776;9.162;2024-03-06T08:30:44;6.60;95.50
292;DHT22;23311;48.776;9.162;2024-03-06T08:33:13;6.60;95.50
292;DHT22;23311;48.776;9.162;2024-03-06T08:35:45;6.70;95.50
292;DHT22;23311;48.776;9.162;2024-03-06T08:38:15;6.70;95.50
292;DHT22;23311;48.776;9.162;2024-03-06T08:40:44;6.80;95.50
292;DHT22;23311;48.776;9.162;2024-03-06T08:43:13;6.90;95.50
292;DHT22;23311;48.776;9.162;2024-03-06T08:45:42;6.90;95.50
292;DHT22;23311;48.776;9.162;2024-03-06T08:48:11;7.00;95.50
292;DHT22;23311;48.776;9.162;2024-03-06T08:50:39;7.00;95.50
292;DHT22;23311;48.776;9.162;2024-03-06T08:53:07;7.00;95.50
292;DHT22;23311;48.776;9.162;2024-03-06T08:55:38;6.90;95.50
292;DHT22;23311;48.776;9.162;2024-03-06T08:58:06;6.90;95.50
292;DHT22;23311;48.776;9.162;2024-03-06T09:00:35;7.10;95.50
292;DHT22;23311;48.776;9.162;2024-03-06T09:03:04;7.10;95.50
292;DHT22;23311;48.776;9.162;2024-03-06T09:05:32;7.20;95.50
292;DHT22;23311;48.776;9.162;2024-03-06T09:08:01;7.20;95.50
292;DHT22;23311;48.776;9.162;2024-03-06T09:10:33;7.30;95.50
292;DHT22;23311;48.776;9.162;2024-03-06T09:13:03;7.30;95.50
292;DHT22;23311;48.776;9.162;2024-03-06T09:15:31;7.20;95.50
292;DHT22;23311;48.776;9.162;2024-03-06T09:17:59;7.30;95.50
292;DHT22;23311;48.776;9.162;2024-03-06T09:20:28;7.20;95.50
292;DHT22;23311;48.776;9.162;2024-03-06T09:23:00;7.20;95.50
292;DHT22;23311;48.776;9.162;2024-03-06T09:25:28;7.10;95.50
292;DHT22;23311;48.776;9.162;2024-03-06T09:27:57;7.10;95.50
292;DHT22;23311;48.776;9.162;2024-03-06T09:30:28;7.10;95.50
292;DHT22;23311;48.776;9.162;2024-03-06T09:32:57;7.20;95.50
292;DHT22;23311;48.776;9.162;2024-03-06T09:35:25;7.20;95.50
292;DHT22;23311;48.776;9.162;2024-03-06T09:37:53;7.10;95.50
292;DHT22;23311;48.776;9.162;2024-03-06T09:40:25;7.10;95.50
292;DHT22;23311;48.776;9.162;2024-03-06T09:42:54;7.10;95.50
292;DHT22;23311;48.776;9.162;2024-03-06T09:45:22;7.10;95.50
292;DHT22;23311;48.776;9.162;2024-03-06T09:47:52;7.20;95.50
292;DHT22;23311;48.776;9.162;2024-03-06T09:50:23;7.20;95.50
292;DHT22;23311;48.776;9.162;2024-03-06T09:52:55;7.20;95.50
292;DHT22;23311;48.776;9.162;2024-03-06T09:55:25;7.30;95.50
292;DHT22;23311;48.776;9.162;2024-03-06T09:57:54;7.10;95.50
292;DHT22;23311;48.776;9.162;2024-03-06T10:00:23;7.00;95.50
292;DHT22;23311;48.776;9.162;2024-03-06T10:02:57;7.00;95.50
292;DHT22;23311;48.776;9.162;2024-03-06T10:05:27;7.00;95.50
292;DHT22;23311;48.776;9.162;2024-03-06T10:07:57;6.90;95.50
292;DHT22;23311;48.776;9.162;2024-03-06T10:10:26;6.90;95.50
292;DHT22;23311;48.776;9.162;2024-03-06T10:12:55;6.90;95.50
292;DHT22;23311;48.776;9.162;2024-03-06T10:15:24;7.00;95.50
292;DHT22;23311;48.776;9.162;2024-03-06T10:18:10;7.00;95.50
292;DHT22;23311;48.776;9.162;2024-03-06T10:20:40;7.00;95.50
292;DHT22;23311;48.776;9.162;2024-03-06T10:23:11;7.10;95.50
292;DHT22;23311;48.776;9.162;2024-03-06T10:25:39;7.00;95.50
292;DHT22;23311;48.776;9.162;2024-03-06T10:28:11;7.00;95.50
292;DHT22;23311;48.776;9.162;2024-03-06T10:30:41;7.10;95.50
292;DHT22;23311;48.776;9.162;2024-03-06T10:33:13;7.20;95.50
292;DHT22;23311;48.776;9.162;2024-03-06T10:35:41;7.30;95.50
292;DHT22;23311;48.776;9.162;2024-03-06T10:38:11;7.30;95.50
292;DHT22;23311;48.776;9.162;2024-03-06T10:40:41;7.30;95.50
292;DHT22;23311;48.776;9.162;2024-03-06T10:43:10;7.40;95.50
292;DHT22;23311;48.776;9.162;2024-03-06T10:45:47;7.50;95.50
292;DHT22;23311;48.776;9.162;2024-03-06T10:48:18;7.70;95.50
292;DHT22;23311;48.776;9.162;2024-03-06T10:50:48;7.80;95.50
292;DHT22;23311;48.776;9.162;2024-03-06T10:53:18;8.00;95.50
292;DHT22;23311;48.776;9.162;2024-03-06T10:55:53;7.90;95.50
292;DHT22;23311;48.776;9.162;2024-03-06T10:58:23;8.20;95.50
292;DHT22;23311;48.776;9.162;2024-03-06T11:00:52;8.30;95.50
292;DHT22;23311;48.776;9.162;2024-03-06T11:03:23;8.30;95.50
292;DHT22;23311;48.776;9.162;2024-03-06T11:05:53;8.10;95.50
292;DHT22;23311;48.776;9.162;2024-03-06T11:08:21;7.90;95.50
292;DHT22;23311;48.776;9.162;2024-03-06T11:10:53;7.90;95.50
292;DHT22;23311;48.776;9.162;2024-03-06T11:13:23;7.80;95.50
292;DHT22;23311;48.776;9.162;2024-03-06T11:15:52;7.70;95.50
292;DHT22;23311;48.776;9.162;2024-03-06T11:18:41;7.60;95.50
292;DHT22;23311;48.776;9.162;2024-03-06T11:21:31;7.50;95.50
292;DHT22;23311;48.776;9.162;2024-03-06T11:24:17;7.50;95.50
292;DHT22;23311;48.776;9.162;2024-03-06T11:26:54;7.50;95.50
292;DHT22;23311;48.776;9.162;2024-03-06T11:29:23;7.40;95.50
292;DHT22;23311;48.776;9.162;2024-03-06T11:32:03;7.40;95.50
292;DHT22;23311;48.776;9.162;2024-03-06T11:34:36;7.50;95.50
292;DHT22;23311;48.776;9.162;2024-03-06T11:37:06;7.50;95.50
292;DHT22;23311;48.776;9.162;2024-03-06T11:39:38;7.50;95.50
292;DHT22;23311;48.776;9.162;2024-03-06T11:42:09;7.50;95.50
292;DHT22;23311;48.776;9.162;2024-03-06T11:44:52;7.40;95.50
292;DHT22;23311;48.776;9.162;2024-03-06T11:47:22;7.20;95.50
292;DHT22;23311;48.776;9.162;2024-03-06T11:49:53;7.20;95.50
292;DHT22;23311;48.776;9.162;2024-03-06T11:52:21;7.20;95.50
292;DHT22;23311;48.776;9.162;2024-03-06T11:54:51;7.30;95.50
292;DHT22;23311;48.776;9.162;2024-03-06T11:57:20;7.20;95.50
292;DHT22;23311;48.776;9.162;2024-03-06T11:59:52;7.20;95.50
292;DHT22;23311;48.776;9.162;2024-03-06T12:02:21;7.30;95.50
292;DHT22;23311;48.776;9.162;2024-03-06T12:04:49;7.40;95.50
292;DHT22;23311;48.776;9.162;2024-03-06T12:07:19;7.40;95.50
292;DHT22;23311;48.776;9.162;2024-03-06T12:09:48;7.30;95.50
292;DHT22;23311;48.776;9.162;2024-03-06T12:12:16;7.20;95.50
292;DHT22;23311;48.776;9.162;2024-03-06T12:14:56;7.20;95.50
292;DHT22;23311;48.776;9.162;2024-03-06T12:17:25;7.20;95.50
292;DHT22;23311;48.776;9.162;2024-03-06T12:19:55;7.20;95.50
292;DHT22;23311;48.776;9.162;2024-03-06T12:22:26;7.20;95.50
292;DHT22;23311;48.776;9.162;2024-03-06T12:24:59;7.20;95.50
292;DHT22;23311;48.776;9.162;2024-03-06T12:27:28;7.20;95.50
292;DHT22;23311;48.776;9.162;2024-03-06T12:29:56;7.20;95.50
292;DHT22;23311;48.776;9.162;2024-03-06T12:32:24;7.30;95.50
292;DHT22;23311;48.776;9.162;2024-03-06T12:34:57;7.10;95.50
292;DHT22;23311;48.776;9.162;2024-03-06T12:37:32;7.10;95.50
292;DHT22;23311;48.776;9.162;2024-03-06T12:40:02;7.20;95.50
292;DHT22;23311;48.776;9.162;2024-03-06T12:42:32;7.20;95.50
292;DHT22;23311;48.776;9.162;2024-03-06T12:45:00;7.20;95.50
292;DHT22;23311;48.776;9.162;2024-03-06T12:47:30;7.20;95.50
292;DHT22;23311;48.776;9.162;2024-03-06T12:49:58;7.10;95.50
292;DHT22;23311;48.776;9.162;2024-03-06T12:52:27;7.20;95.50
292;DHT22;23311;48.776;9.162;2024-03-06T12:54:56;7.20;95.50
292;DHT22;23311;48.776;9.162;2024-03-06T12:57:25;7.30;95.50
292;DHT22;23311;48.776;9.162;2024-03-06T12:59:54;7.30;95.50
292;DHT22;23311;48.776;9.162;2024-03-06T13:02:23;7.30;95.50
292;DHT22;23311;48.776;9.162;2024-03-06T13:04:51;7.30;95.50
292;DHT22;23311;48.776;9.162;2024-03-06T13:07:20;7.30;95.50
292;DHT22;23311;48.776;9.162;2024-03-06T13:09:48;7.40;95.50
292;DHT22;23311;48.776;9.162;2024-03-06T13:12:18;7.40;95.50
292;DHT22;23311;48.776;9.162;2024-03-06T13:14:47;7.40;95.50
292;DHT22;23311;48.776;9.162;2024-03-06T13:17:15;7.30;95.50
292;DHT22;23311;48.776;9.162;2024-03-06T13:19:43;7.30;95.50
292;DHT22;23311;48.776;9.162;2024-03-06T13:22:12;7.40;95.50
292;DHT22;23311;48.776;9.162;2024-03-06T13:24:40;7.40;95.50
292;DHT22;23311;48.776;9.162;2024-03-06T13:27:11;7.30;95.50
292;DHT22;23311;48.776;9.162;2024-03-06T13:29:41;7.30;95.50
292;DHT22;23311;48.776;9.162;2024-03-06T13:32:09;7.20;95.50
292;DHT22;23311;48.776;9.162;2024-03-06T13:34:37;7.20;95.50
292;DHT22;23311;48.776;9.162;2024-03-06T13:37:05;7.10;95.50
292;DHT22;23311;48.776;9.162;2024-03-06T13:39:37;7.20;95.50
292;DHT22;23311;48.776;9.162;2024-03-06T13:42:07;7.20;95.50
292;DHT22;23311;48.776;9.162;2024-03-06T13:44:36;7.20;95.50
292;DHT22;23311;48.776;9.162;2024-03-06T13:47:06;7.30;95.50
292;DHT22;23311;48.776;9.162;2024-03-06T13:49:37;7.30;95.50
292;DHT22;23311;48.776;9.162;2024-03-06T13:52:06;7.30;95.50
292;DHT22;23311;48.776;9.162;2024-03-06T13:54:38;7.40;95.50
292;DHT22;23311;48.776;9.162;2024-03-06T13:57:07;7.40;95.50
292;DHT22;23311;48.776;9.162;2024-03-06T13:59:35;7.40;95.50
292;DHT22;23311;48.776;9.162;2024-03-06T14:02:06;7.40;95.50
292;DHT22;23311;48.776;9.162;2024-03-06T14:04:35;7.40;95.50
292;DHT22;23311;48.776;9.162;2024-03-06T14:07:03;7.50;95.50
292;DHT22;23311;48.776;9.162;2024-03-06T14:09:32;7.50;95.50
292;DHT22;23311;48.776;9.162;2024-03-06T14:12:00;7.50;95.50
292;DHT22;23311;48.776;9.162;2024-03-06T14:14:29;7.50;95.50
292;DHT22;23311;48.776;9.162;2024-03-06T14:16:57;7.60;95.50
292;DHT22;23311;48.776;9.162;2024-03-06T14:19:27;7.60;95.50
292;DHT22;23311;48.776;9.162;2024-03-06T14:21:55;7.60;95.50
292;DHT22;23311;48.776;9.162;2024-03-06T14:24:28;7.60;95.50
292;DHT22;23311;48.776;9.162;2024-03-06T14:26:56;7.50;95.50
292;DHT22;23311;48.776;9.162;2024-03-06T14:29:25;7.60;95.50
292;DHT22;23311;48.776;9.162;2024-03-06T14:31:55;7.50;95.50
292;DHT22;23311;48.776;9.162;2024-03-06T14:34:23;7.50;95.50
292;DHT22;23311;48.776;9.162;2024-03-06T14:36:52;7.60;95.50
292;DHT22;23311;48.776;9.162;2024-03-06T14:39:21;7.50;95.50
292;DHT22;23311;48.776;9.162;2024-03-06T14:41:51;7.50;95.50
292;DHT22;23311;48.776;9.162;2024-03-06T14:44:20;7.50;95.50
292;DHT22;23311;48.776;9.162;2024-03-06T14:46:48;7.40;95.50
292;DHT22;23311;48.776;9.162;2024-03-06T14:49:16;7.50;95.50
292;DHT22;23311;48.776;9.162;2024-03-06T14:51:44;7.50;95.50
292;DHT22;23311;48.776;9.162;2024-03-06T14:54:14;7.50;95.50
292;DHT22;23311;48.776;9.162;2024-03-06T14:56:43;7.50;95.50
292;DHT22;23311;48.776;9.162;2024-03-06T14:59:11;7.50;95.50
292;DHT22;23311;48.776;9.162;2024-03-06T15:01:39;7.50;95.50
292;DHT22;23311;48.776;9.162;2024-03-06T15:04:08;7.50;95.50
292;DHT22;23311;48.776;9.162;2024-03-06T15:06:36;7.60;95.50
292;DHT22;23311;48.776;9.162;2024-03-06T15:09:04;7.60;95.50
292;DHT22;23311;48.776;9.162;2024-03-06T15:11:34;7.60;95.50
292;DHT22;23311;48.776;9.162;2024-03-06T15:14:03;7.60;95.50
292;DHT22;23311;48.776;9.162;2024-03-06T15:16:31;7.60;95.50
292;DHT22;23311;48.776;9.162;2024-03-06T15:18:59;7.50;95.50
292;DHT22;23311;48.776;9.162;2024-03-06T15:21:30;7.50;95.50
292;DHT22;23311;48.776;9.162;2024-03-06T15:23:59;7.50;95.50
292;DHT22;23311;48.776;9.162;2024-03-06T15:26:31;7.40;95.50
292;DHT22;23311;48.776;9.162;2024-03-06T15:29:04;7.50;95.50
292;DHT22;23311;48.776;9.162;2024-03-06T15:31:33;7.50;95.50
292;DHT22;23311;48.776;9.162;2024-03-06T15:34:02;7.40;95.50
292;DHT22;23311;48.776;9.162;2024-03-06T15:36:30;7.40;95.50
292;DHT22;23311;48.776;9.162;2024-03-06T15:38:58;7.50;95.50
292;DHT22;23311;48.776;9.162;2024-03-06T15:41:26;7.50;95.50
292;DHT22;23311;48.776;9.162;2024-03-06T15:43:55;7.50;95.50
292;DHT22;23311;48.776;9.162;2024-03-06T15:46:24;7.40;95.50
292;DHT22;23311;48.776;9.162;2024-03-06T15:48:53;7.40;95.50
292;DHT22;23311;48.776;9.162;2024-03-06T15:51:21;7.40;95.50
292;DHT22;23311;48.776;9.162;2024-03-06T15:53:49;7.50;95.50
292;DHT22;23311;48.776;9.162;2024-03-06T15:56:19;7.40;95.50
292;DHT22;23311;48.776;9.162;2024-03-06T15:58:48;7.40;95.50
292;DHT22;23311;48.776;9.162;2024-03-06T16:01:16;7.50;95.50
292;DHT22;23311;48.776;9.162;2024-03-06T16:04:08;7.50;95.50
292;DHT22;23311;48.776;9.162;2024-03-06T16:06:36;7.50;95.50
292;DHT22;23311;48.776;9.162;2024-03-06T16:09:07;7.50;95.50
292;DHT22;23311;48.776;9.162;2024-03-06T16:11:40;7.50;95.50
292;DHT22;23311;48.776;9.162;2024-03-06T16:14:09;7.50;95.50
292;DHT22;23311;48.776;9.162;2024-03-06T16:16:39;7.50;95.50
292;DHT22;23311;48.776;9.162;2024-03-06T16:19:09;7.50;95.50
292;DHT22;23311;48.776;9.162;2024-03-06T16:21:37;7.40;95.50
292;DHT22;23311;48.776;9.162;2024-03-06T16:24:06;7.40;95.50
292;DHT22;23311;48.776;9.162;2024-03-06T16:26:37;7.40;95.50
292;DHT22;23311;48.776;9.162;2024-03-06T16:29:05;7.40;95.50
292;DHT22;23311;48.776;9.162;2024-03-06T16:31:33;7.40;95.50
292;DHT22;23311;48.776;9.162;2024-03-06T16:34:01;7.30;95.50
292;DHT22;23311;48.776;9.162;2024-03-06T16:36:31;7.40;95.50